createdAt,value
2023-03-29T00:00:49.600Z,43.12
2023-03-29T00:03:16.814Z,43.37
2023-03-29T00:05:43.500Z,43.25
2023-03-29T00:08:10.158Z,43.24
2023-03-29T00:10:37.966Z,43.35
2023-03-29T00:13:04.470Z,43.42
2023-03-29T00:15:30.922Z,43.49
2023-03-29T00:17:57.560Z,43.31
2023-03-29T00:20:24.076Z,43.31
2023-03-29T00:22:50.596Z,43.36
2023-03-29T00:25:17.233Z,43.52
2023-03-29T00:27:45.056Z,43.50
2023-03-29T00:30:12.422Z,43.45
2023-03-29T00:32:38.967Z,43.64
2023-03-29T00:35:06.177Z,43.51
2023-03-29T00:37:33.135Z,43.51
2023-03-29T00:39:59.837Z,43.53
2023-03-29T00:42:26.682Z,43.78
2023-03-29T00:44:59.332Z,43.79
2023-03-29T00:47:28.753Z,43.86
2023-03-29T00:49:57.990Z,43.71
2023-03-29T00:52:24.669Z,43.75
2023-03-29T00:54:55.507Z,43.93
2023-03-29T00:57:23.974Z,43.84
2023-03-29T00:59:52.423Z,43.59
2023-03-29T01:02:23.552Z,44.01
2023-03-29T01:04:56.017Z,43.77
2023-03-29T01:07:25.745Z,43.84
2023-03-29T01:09:55.715Z,43.81
2023-03-29T01:12:27.840Z,43.98
2023-03-29T01:14:59.295Z,43.92
2023-03-29T01:17:27.166Z,44.20
2023-03-29T01:19:59.542Z,43.93
2023-03-29T01:22:34.741Z,43.92
2023-03-29T01:25:10.901Z,44.21
2023-03-29T01:27:47.291Z,44.22
2023-03-29T01:30:17.857Z,44.12
2023-03-29T01:32:48.376Z,43.98
2023-03-29T01:35:20.898Z,44.21
2023-03-29T01:37:52.936Z,44.14
2023-03-29T01:40:19.576Z,44.22
2023-03-29T01:42:53.178Z,44.29
2023-03-29T01:45:24.558Z,44.21
2023-03-29T01:47:57.498Z,44.32
2023-03-29T01:50:36.209Z,44.27
2023-03-29T01:53:07.798Z,44.41
2023-03-29T01:55:39.179Z,44.51
2023-03-29T01:58:10.309Z,44.49
2023-03-29T02:00:38.571Z,44.22
2023-03-29T02:03:09.032Z,44.46
2023-03-29T02:05:36.894Z,44.30
2023-03-29T02:08:07.101Z,44.42
2023-03-29T02:10:34.816Z,44.56
2023-03-29T02:13:01.310Z,44.52
2023-03-29T02:15:29.257Z,44.36
2023-03-29T02:17:55.858Z,44.66
2023-03-29T02:20:27.236Z,44.56
2023-03-29T02:23:00.128Z,44.49
2023-03-29T02:25:26.672Z,44.71
2023-03-29T02:27:53.903Z,44.56
2023-03-29T02:30:21.284Z,44.48
2023-03-29T02:32:57.074Z,44.56
2023-03-29T02:35:31.094Z,44.65
2023-03-29T02:37:58.746Z,44.73
2023-03-29T02:40:25.796Z,44.78
2023-03-29T02:42:55.528Z,44.76
2023-03-29T02:45:24.789Z,44.76
2023-03-29T02:47:56.792Z,44.83
2023-03-29T02:50:24.791Z,44.90
2023-03-29T02:52:55.016Z,44.97
2023-03-29T02:55:25.054Z,44.85
2023-03-29T02:57:51.719Z,44.87
2023-03-29T03:00:18.893Z,44.94
2023-03-29T03:02:46.713Z,45.00
2023-03-29T03:05:14.625Z,44.84
2023-03-29T03:07:41.275Z,45.01
2023-03-29T03:10:08.751Z,44.92
2023-03-29T03:12:35.411Z,45.15
2023-03-29T03:15:01.985Z,45.05
2023-03-29T03:17:28.512Z,45.01
2023-03-29T03:19:55.024Z,45.14
2023-03-29T03:22:22.821Z,45.10
2023-03-29T03:24:49.281Z,44.86
2023-03-29T03:27:15.783Z,44.88
2023-03-29T03:29:42.424Z,44.70
2023-03-29T03:32:09.101Z,44.93
2023-03-29T03:34:35.598Z,44.76
2023-03-29T03:37:02.137Z,44.76
2023-03-29T03:39:30.044Z,44.62
2023-03-29T03:41:56.519Z,44.76
2023-03-29T03:44:23.140Z,44.57
2023-03-29T03:46:49.600Z,44.70
2023-03-29T03:49:16.127Z,44.77
2023-03-29T03:51:42.567Z,44.89
2023-03-29T03:54:09.011Z,44.87
2023-03-29T03:56:36.865Z,44.79
2023-03-29T03:59:03.359Z,44.91
2023-03-29T04:01:29.856Z,44.84
2023-03-29T04:03:56.504Z,44.91
2023-03-29T04:06:23.049Z,44.90
2023-03-29T04:08:49.530Z,45.00
2023-03-29T04:11:16.190Z,44.96
2023-03-29T04:13:43.949Z,44.79
2023-03-29T04:16:10.507Z,44.85
2023-03-29T04:18:37.176Z,45.25
2023-03-29T04:21:04.282Z,45.09
2023-03-29T04:23:30.894Z,45.00
2023-03-29T04:25:57.372Z,45.03
2023-03-29T04:28:23.834Z,44.87
2023-03-29T04:30:51.577Z,45.06
2023-03-29T04:33:18.253Z,45.07
2023-03-29T04:35:44.752Z,45.03
2023-03-29T04:38:11.223Z,44.82
2023-03-29T04:40:38.202Z,44.95
2023-03-29T04:43:04.734Z,44.74
2023-03-29T04:45:31.198Z,45.20
2023-03-29T04:47:59.131Z,45.10
2023-03-29T04:50:25.631Z,45.06
2023-03-29T04:52:52.089Z,44.94
2023-03-29T04:55:18.845Z,45.00
2023-03-29T04:57:45.314Z,45.05
2023-03-29T05:00:12.511Z,45.19
2023-03-29T05:02:39.021Z,45.31
2023-03-29T05:05:07.129Z,45.15
2023-03-29T05:07:33.622Z,45.26
2023-03-29T05:10:00.165Z,45.21
2023-03-29T05:12:26.669Z,45.26
2023-03-29T05:14:53.563Z,45.42
2023-03-29T05:17:20.078Z,46.18
2023-03-29T05:19:46.613Z,45.97
2023-03-29T05:22:14.518Z,45.74
2023-03-29T05:24:41.352Z,45.78
2023-03-29T05:27:07.805Z,45.76
2023-03-29T05:29:34.273Z,45.66
2023-03-29T05:32:00.807Z,45.69
2023-03-29T05:34:27.368Z,45.71
2023-03-29T05:36:53.883Z,45.71
2023-03-29T05:39:21.636Z,45.82
2023-03-29T05:41:48.085Z,45.74
2023-03-29T05:44:14.593Z,45.67
2023-03-29T05:46:41.193Z,45.76
2023-03-29T05:49:07.677Z,45.74
2023-03-29T05:51:34.388Z,45.92
2023-03-29T05:54:01.256Z,45.84
2023-03-29T05:56:29.026Z,45.93
2023-03-29T05:58:55.631Z,45.90
2023-03-29T06:01:22.506Z,45.93
2023-03-29T06:03:49.417Z,45.76
2023-03-29T06:06:16.077Z,45.81
2023-03-29T06:08:43.825Z,45.78
2023-03-29T06:11:12.117Z,46.50
2023-03-29T06:13:40.186Z,50.86
2023-03-29T06:16:07.607Z,52.25
2023-03-29T06:18:34.657Z,52.38
2023-03-29T06:21:01.609Z,53.38
2023-03-29T06:23:28.943Z,53.75
2023-03-29T06:25:55.990Z,54.76
2023-03-29T06:28:23.120Z,54.86
2023-03-29T06:30:51.079Z,54.11
2023-03-29T06:33:17.618Z,54.85
2023-03-29T06:35:47.142Z,55.25
2023-03-29T06:38:13.903Z,54.69
2023-03-29T06:40:40.935Z,54.97
2023-03-29T06:43:07.449Z,55.07
2023-03-29T06:45:37.036Z,55.17
2023-03-29T06:48:06.013Z,55.16
2023-03-29T06:50:32.730Z,55.00
2023-03-29T06:52:59.283Z,55.21
2023-03-29T06:55:26.257Z,54.79
2023-03-29T06:57:54.143Z,54.37
2023-03-29T07:00:21.579Z,54.81
2023-03-29T07:02:48.390Z,55.40
2023-03-29T07:05:16.408Z,55.46
2023-03-29T07:07:45.693Z,55.30
2023-03-29T07:10:12.434Z,55.65
2023-03-29T07:12:38.902Z,56.06
2023-03-29T07:15:06.062Z,55.96
2023-03-29T07:17:32.593Z,55.82
2023-03-29T07:19:59.106Z,55.68
2023-03-29T07:22:26.986Z,55.74
2023-03-29T07:24:53.421Z,54.79
2023-03-29T07:27:19.993Z,54.57
2023-03-29T07:29:46.469Z,54.87
2023-03-29T07:32:13.010Z,55.25
2023-03-29T07:34:39.561Z,55.57
2023-03-29T07:37:06.032Z,55.92
2023-03-29T07:39:34.150Z,55.48
2023-03-29T07:42:00.726Z,55.47
2023-03-29T07:44:27.163Z,55.58
2023-03-29T07:46:53.615Z,55.56
2023-03-29T07:49:22.101Z,55.91
2023-03-29T07:51:48.760Z,55.67
2023-03-29T07:54:15.405Z,55.78
2023-03-29T07:56:43.263Z,55.93
2023-03-29T07:59:09.907Z,55.37
2023-03-29T08:01:36.413Z,55.36
2023-03-29T08:04:03.056Z,55.52
2023-03-29T08:06:29.582Z,55.87
2023-03-29T08:08:56.009Z,56.09
2023-03-29T08:11:22.483Z,55.81
2023-03-29T08:13:50.286Z,55.94
2023-03-29T08:16:16.794Z,56.17
2023-03-29T08:18:43.418Z,55.31
2023-03-29T08:21:10.056Z,56.11
2023-03-29T08:23:36.598Z,56.40
2023-03-29T08:26:03.273Z,56.98
2023-03-29T08:28:29.723Z,56.63
2023-03-29T08:30:57.720Z,56.75
2023-03-29T08:33:24.268Z,56.43
2023-03-29T08:35:50.838Z,55.84
2023-03-29T08:38:17.401Z,55.91
2023-03-29T08:40:48.313Z,54.48
2023-03-29T08:43:24.478Z,54.92
2023-03-29T08:46:08.358Z,56.41
2023-03-29T08:48:38.680Z,56.76
2023-03-29T08:51:17.457Z,56.63
2023-03-29T08:53:49.798Z,56.78
2023-03-29T08:56:20.784Z,56.95
2023-03-29T08:58:50.267Z,56.72
2023-03-29T09:01:19.932Z,56.89
2023-03-29T09:03:49.771Z,56.80
2023-03-29T09:06:20.536Z,56.57
2023-03-29T09:08:49.078Z,56.70
2023-03-29T09:11:28.486Z,56.78
2023-03-29T09:14:06.302Z,56.99
2023-03-29T09:16:42.572Z,56.90
2023-03-29T09:19:19.818Z,56.78
2023-03-29T09:21:56.619Z,56.95
2023-03-29T09:24:40.585Z,56.64
2023-03-29T09:27:10.916Z,56.66
2023-03-29T09:29:49.712Z,56.49
2023-03-29T09:32:21.343Z,56.16
2023-03-29T09:34:58.728Z,56.29
2023-03-29T09:37:32.153Z,56.79
2023-03-29T09:39:59.188Z,56.75
2023-03-29T09:42:28.922Z,56.71
2023-03-29T09:45:00.216Z,56.96
2023-03-29T09:47:31.202Z,56.97
2023-03-29T09:50:02.093Z,56.86
2023-03-29T09:52:28.664Z,56.34
2023-03-29T09:54:55.152Z,56.29
2023-03-29T09:57:21.807Z,56.01
2023-03-29T09:59:50.467Z,56.13
2023-03-29T10:02:19.948Z,56.32
2023-03-29T10:04:53.132Z,56.44
2023-03-29T10:07:20.148Z,56.30
2023-03-29T10:09:48.898Z,56.22
2023-03-29T10:12:16.244Z,55.76
2023-03-29T10:14:45.948Z,55.85
2023-03-29T10:17:20.345Z,55.45
2023-03-29T10:19:50.191Z,55.34
2023-03-29T10:22:19.390Z,55.36
2023-03-29T10:24:51.854Z,54.63
2023-03-29T10:27:23.362Z,53.35
2023-03-29T10:29:50.985Z,52.66
2023-03-29T10:32:25.310Z,52.26
2023-03-29T10:34:54.449Z,52.09
2023-03-29T10:37:21.526Z,51.76
2023-03-29T10:39:48.861Z,51.54
2023-03-29T10:42:17.307Z,52.28
2023-03-29T10:44:52.799Z,52.25
2023-03-29T10:47:20.993Z,50.96
2023-03-29T10:49:51.814Z,50.90
2023-03-29T10:52:21.385Z,50.84
2023-03-29T10:54:50.314Z,50.34
2023-03-29T10:57:29.627Z,50.87
2023-03-29T11:00:01.470Z,52.33
2023-03-29T11:02:50.957Z,52.92
2023-03-29T11:05:24.978Z,52.75
2023-03-29T11:08:09.262Z,52.68
2023-03-29T11:10:45.254Z,52.75
2023-03-29T11:13:20.274Z,52.63
2023-03-29T11:15:58.582Z,52.42
2023-03-29T11:18:40.963Z,52.17
2023-03-29T11:21:15.119Z,52.37
2023-03-29T11:23:49.988Z,52.42
2023-03-29T11:26:21.913Z,52.36
2023-03-29T11:28:52.837Z,51.11
2023-03-29T11:31:32.665Z,51.30
2023-03-29T11:34:12.177Z,50.94
2023-03-29T11:36:45.324Z,50.51
2023-03-29T11:39:23.558Z,49.55
2023-03-29T11:41:54.790Z,49.38
2023-03-29T11:44:27.114Z,49.24
2023-03-29T11:46:59.216Z,49.26
2023-03-29T11:49:32.070Z,49.10
2023-03-29T11:52:03.608Z,49.18
2023-03-29T11:54:36.916Z,48.86
2023-03-29T11:57:07.861Z,48.94
2023-03-29T11:59:40.099Z,49.26
2023-03-29T12:02:16.424Z,49.20
2023-03-29T12:04:48.393Z,48.65
2023-03-29T12:07:19.478Z,48.71
2023-03-29T12:09:51.079Z,48.49
2023-03-29T12:12:21.810Z,48.49
2023-03-29T12:14:56.295Z,48.42
2023-03-29T12:17:30.497Z,48.89
2023-03-29T12:20:05.550Z,49.28
2023-03-29T12:22:32.956Z,49.44
2023-03-29T12:25:04.585Z,49.24
2023-03-29T12:27:36.234Z,49.05
2023-03-29T12:30:23.276Z,48.91
2023-03-29T12:33:08.019Z,49.02
2023-03-29T12:35:41.948Z,48.81
2023-03-29T12:38:19.387Z,49.03
2023-03-29T12:40:53.466Z,49.06
2023-03-29T12:43:24.723Z,49.13
2023-03-29T12:45:55.314Z,48.96
2023-03-29T12:48:24.756Z,48.79
2023-03-29T12:50:54.150Z,48.39
2023-03-29T12:53:23.942Z,48.18
2023-03-29T12:55:56.158Z,48.26
2023-03-29T12:58:27.696Z,47.99
2023-03-29T13:01:06.226Z,48.24
2023-03-29T13:03:46.561Z,47.69
2023-03-29T13:06:13.047Z,47.20
2023-03-29T13:08:42.100Z,46.61
2023-03-29T13:11:13.101Z,46.43
2023-03-29T13:13:41.571Z,45.92
2023-03-29T13:16:12.757Z,45.62
2023-03-29T13:18:53.294Z,45.73
2023-03-29T13:21:28.735Z,45.59
2023-03-29T13:24:01.974Z,45.87
2023-03-29T13:26:40.409Z,45.83
2023-03-29T13:29:33.059Z,45.72
2023-03-29T13:32:05.804Z,45.79
2023-03-29T13:34:38.856Z,45.56
2023-03-29T13:37:17.932Z,45.79
2023-03-29T13:39:49.733Z,45.76
2023-03-29T13:42:23.917Z,45.99
2023-03-29T13:44:51.060Z,46.09
2023-03-29T13:47:36.643Z,45.87
2023-03-29T13:50:10.274Z,45.77
2023-03-29T13:52:41.317Z,45.85
2023-03-29T13:55:16.124Z,46.00
2023-03-29T13:57:50.918Z,45.93
2023-03-29T14:00:22.483Z,46.15
2023-03-29T14:02:51.947Z,46.18
2023-03-29T14:05:23.370Z,46.41
2023-03-29T14:07:52.050Z,46.62
2023-03-29T14:10:24.007Z,46.77
2023-03-29T14:12:53.556Z,46.93
2023-03-29T14:15:23.899Z,46.85
2023-03-29T14:17:54.762Z,46.41
2023-03-29T14:20:21.526Z,45.97
2023-03-29T14:22:48.227Z,45.71
2023-03-29T14:25:17.654Z,45.66
2023-03-29T14:27:44.944Z,45.56
2023-03-29T14:30:25.185Z,45.53
2023-03-29T14:32:51.728Z,45.57
2023-03-29T14:35:18.504Z,45.70
2023-03-29T14:37:47.697Z,45.55
2023-03-29T14:40:17.994Z,45.71
2023-03-29T14:42:46.174Z,45.70
2023-03-29T14:45:15.975Z,45.77
2023-03-29T14:47:44.938Z,45.39
2023-03-29T14:50:23.221Z,45.29
2023-03-29T14:52:52.428Z,45.33
2023-03-29T14:55:19.528Z,45.47
2023-03-29T14:57:47.152Z,45.96
2023-03-29T15:00:21.454Z,45.70
2023-03-29T15:02:54.057Z,45.83
2023-03-29T15:05:25.747Z,45.70
2023-03-29T15:07:52.295Z,45.53
2023-03-29T15:10:19.696Z,45.53
2023-03-29T15:12:46.270Z,45.60
2023-03-29T15:15:13.529Z,45.47
2023-03-29T15:17:50.949Z,45.59
2023-03-29T15:20:24.319Z,45.57
2023-03-29T15:22:55.890Z,45.68
2023-03-29T15:25:22.453Z,45.71
2023-03-29T15:27:51.018Z,45.56
2023-03-29T15:30:18.810Z,45.48
2023-03-29T15:32:45.458Z,45.45
2023-03-29T15:35:24.069Z,45.31
2023-03-29T15:37:52.429Z,45.31
2023-03-29T15:40:21.202Z,45.41
2023-03-29T15:42:47.859Z,45.45
2023-03-29T15:45:16.093Z,45.62
2023-03-29T15:47:42.664Z,45.30
2023-03-29T15:50:10.245Z,45.14
2023-03-29T15:52:38.520Z,45.18
2023-03-29T15:55:05.987Z,45.32
2023-03-29T15:57:32.633Z,45.19
2023-03-29T15:59:59.336Z,45.07
2023-03-29T16:02:25.889Z,45.40
2023-03-29T16:04:52.457Z,45.36
2023-03-29T16:07:19.600Z,45.08
2023-03-29T16:09:47.688Z,45.16
2023-03-29T16:12:14.330Z,45.02
2023-03-29T16:14:43.027Z,45.13
2023-03-29T16:17:09.814Z,45.22
2023-03-29T16:19:36.312Z,45.37
2023-03-29T16:22:03.805Z,44.95
2023-03-29T16:24:32.005Z,44.98
2023-03-29T16:27:00.898Z,45.13
2023-03-29T16:29:27.498Z,44.92
2023-03-29T16:31:54.651Z,44.86
2023-03-29T16:34:21.876Z,45.00
2023-03-29T16:36:49.696Z,44.76
2023-03-29T16:39:16.631Z,45.09
2023-03-29T16:41:43.448Z,45.02
2023-03-29T16:44:15.202Z,44.75
2023-03-29T16:46:41.740Z,44.75
2023-03-29T16:49:12.548Z,45.05
2023-03-29T16:51:39.031Z,44.87
2023-03-29T16:54:05.569Z,44.84
2023-03-29T16:56:32.014Z,44.72
2023-03-29T16:58:58.544Z,44.73
2023-03-29T17:01:26.323Z,44.72
2023-03-29T17:03:52.842Z,44.80
2023-03-29T17:06:19.432Z,44.58
2023-03-29T17:08:45.921Z,44.41
2023-03-29T17:11:12.424Z,44.36
2023-03-29T17:13:39.030Z,44.53
2023-03-29T17:16:06.632Z,44.73
2023-03-29T17:18:34.914Z,44.90
2023-03-29T17:21:01.458Z,44.67
2023-03-29T17:23:27.931Z,44.38
2023-03-29T17:25:55.078Z,44.47
2023-03-29T17:28:21.715Z,44.31
2023-03-29T17:30:48.339Z,44.25
2023-03-29T17:33:22.253Z,44.13
2023-03-29T17:35:50.559Z,44.36
2023-03-29T17:38:17.124Z,44.49
2023-03-29T17:40:43.662Z,44.45
2023-03-29T17:43:10.080Z,44.02
2023-03-29T17:45:36.654Z,44.25
2023-03-29T17:48:06.236Z,44.20
2023-03-29T17:50:34.249Z,43.81
2023-03-29T17:53:02.104Z,44.12
2023-03-29T17:55:28.669Z,43.80
2023-03-29T17:57:55.167Z,43.93
2023-03-29T18:00:21.968Z,43.87
2023-03-29T18:02:48.847Z,43.97
2023-03-29T18:05:15.562Z,43.96
2023-03-29T18:07:42.123Z,43.96
2023-03-29T18:10:11.121Z,43.79
2023-03-29T18:12:37.632Z,43.97
2023-03-29T18:15:05.558Z,43.98
2023-03-29T18:17:32.231Z,43.96
2023-03-29T18:19:58.786Z,43.80
2023-03-29T18:22:25.399Z,43.64
2023-03-29T18:24:51.917Z,44.11
2023-03-29T18:27:19.811Z,43.97
2023-03-29T18:29:46.466Z,43.78
2023-03-29T18:32:13.674Z,44.17
2023-03-29T18:34:40.499Z,43.94
2023-03-29T18:37:07.003Z,43.93
2023-03-29T18:39:33.512Z,43.92
2023-03-29T18:42:00.068Z,44.00
2023-03-29T18:44:28.014Z,43.82
2023-03-29T18:46:54.489Z,44.11
2023-03-29T18:49:21.209Z,44.20
2023-03-29T18:51:47.750Z,44.04
2023-03-29T18:54:14.223Z,44.05
2023-03-29T18:56:40.783Z,44.37
2023-03-29T18:59:07.339Z,44.34
2023-03-29T19:01:35.337Z,44.29
2023-03-29T19:04:01.850Z,44.22
2023-03-29T19:06:28.403Z,44.29
2023-03-29T19:08:55.000Z,44.41
2023-03-29T19:11:21.467Z,44.56
2023-03-29T19:13:47.942Z,44.65
2023-03-29T19:16:14.578Z,44.72
2023-03-29T19:18:42.703Z,44.92
2023-03-29T19:21:09.297Z,44.96
2023-03-29T19:23:35.803Z,45.01
2023-03-29T19:26:04.073Z,44.84
2023-03-29T19:28:31.412Z,45.16
2023-03-29T19:30:59.862Z,45.19
2023-03-29T19:33:26.487Z,45.18
2023-03-29T19:35:54.348Z,45.38
2023-03-29T19:38:21.427Z,45.37
2023-03-29T19:40:50.104Z,45.28
2023-03-29T19:43:17.518Z,45.43
2023-03-29T19:45:44.706Z,45.51
2023-03-29T19:48:21.145Z,45.48
2023-03-29T19:50:48.565Z,45.62
2023-03-29T19:53:16.649Z,45.68
2023-03-29T19:55:43.566Z,46.04
2023-03-29T19:58:10.068Z,45.77
2023-03-29T20:00:36.741Z,45.76
2023-03-29T20:03:03.666Z,45.89
2023-03-29T20:05:30.456Z,45.90
2023-03-29T20:07:57.162Z,45.94
2023-03-29T20:10:25.105Z,46.05
2023-03-29T20:12:51.682Z,46.16
2023-03-29T20:15:18.276Z,46.14
2023-03-29T20:17:44.857Z,46.35
2023-03-29T20:20:12.383Z,46.27
2023-03-29T20:22:38.927Z,46.20
2023-03-29T20:25:06.045Z,46.47
2023-03-29T20:27:33.993Z,46.25
2023-03-29T20:30:00.657Z,46.53
2023-03-29T20:32:27.165Z,46.36
2023-03-29T20:34:53.730Z,46.47
2023-03-29T20:37:20.230Z,46.46
2023-03-29T20:39:46.748Z,46.66
2023-03-29T20:42:13.216Z,46.68
2023-03-29T20:44:41.044Z,46.77
2023-03-29T20:47:07.572Z,46.72
2023-03-29T20:49:35.359Z,46.98
2023-03-29T20:52:01.915Z,46.76
2023-03-29T20:54:28.557Z,46.81
2023-03-29T20:56:55.192Z,46.83
2023-03-29T20:59:21.757Z,46.79
2023-03-29T21:01:49.553Z,46.97
2023-03-29T21:04:16.139Z,46.87
2023-03-29T21:06:42.626Z,47.08
2023-03-29T21:09:09.139Z,46.94
2023-03-29T21:11:35.554Z,47.18
2023-03-29T21:14:02.195Z,47.24
2023-03-29T21:16:28.753Z,47.11
2023-03-29T21:18:56.804Z,46.97
2023-03-29T21:21:23.302Z,47.18
2023-03-29T21:23:49.845Z,47.04
2023-03-29T21:26:16.272Z,47.26
2023-03-29T21:28:43.120Z,47.16
2023-03-29T21:31:09.855Z,47.24
2023-03-29T21:33:36.412Z,47.25
2023-03-29T21:36:04.492Z,47.37
2023-03-29T21:38:31.039Z,47.38
2023-03-29T21:40:57.531Z,47.28
2023-03-29T21:43:24.082Z,47.29
2023-03-29T21:45:50.663Z,47.42
2023-03-29T21:48:17.618Z,47.44
2023-03-29T21:50:44.445Z,47.40
2023-03-29T21:53:12.257Z,47.35
2023-03-29T21:55:38.858Z,47.38
2023-03-29T21:58:05.314Z,47.42
2023-03-29T22:00:32.109Z,47.11
2023-03-29T22:02:58.786Z,47.13
2023-03-29T22:05:25.294Z,47.45
2023-03-29T22:07:51.880Z,47.38
2023-03-29T22:10:20.113Z,47.35
2023-03-29T22:12:46.549Z,47.52
2023-03-29T22:15:13.029Z,47.43
2023-03-29T22:17:39.746Z,47.72
2023-03-29T22:20:06.901Z,47.48
2023-03-29T22:22:33.395Z,47.68
2023-03-29T22:24:59.863Z,47.70
2023-03-29T22:27:27.710Z,47.71
2023-03-29T22:29:54.211Z,47.77
2023-03-29T22:32:20.849Z,47.44
2023-03-29T22:34:47.326Z,47.70
2023-03-29T22:37:13.822Z,47.58
2023-03-29T22:39:40.292Z,47.71
2023-03-29T22:42:06.754Z,47.83
2023-03-29T22:44:34.511Z,47.83
2023-03-29T22:47:00.941Z,47.86
2023-03-29T22:49:27.458Z,47.92
2023-03-29T22:51:53.947Z,47.85
2023-03-29T22:54:20.452Z,47.69
2023-03-29T22:56:46.928Z,47.88
2023-03-29T22:59:13.505Z,47.75
2023-03-29T23:01:41.352Z,47.80
2023-03-29T23:04:08.125Z,47.50
2023-03-29T23:06:34.666Z,47.88
2023-03-29T23:09:01.127Z,47.72
2023-03-29T23:11:27.616Z,47.89
2023-03-29T23:13:54.088Z,47.85
2023-03-29T23:16:21.135Z,47.75
2023-03-29T23:18:49.286Z,47.96
2023-03-29T23:21:15.930Z,47.80
2023-03-29T23:23:42.422Z,48.05
2023-03-29T23:26:08.951Z,47.96
2023-03-29T23:28:35.621Z,47.97
2023-03-29T23:31:04.971Z,47.94
2023-03-29T23:33:33.809Z,47.90
2023-03-29T23:36:02.921Z,47.88
2023-03-29T23:38:29.767Z,47.88
2023-03-29T23:40:57.537Z,47.88
2023-03-29T23:43:24.125Z,47.75
2023-03-29T23:45:55.487Z,47.82
2023-03-29T23:48:22.119Z,47.99
2023-03-29T23:50:48.546Z,47.84
2023-03-29T23:53:16.351Z,47.79
2023-03-29T23:55:42.845Z,47.72
2023-03-29T23:58:09.360Z,47.98
